sensor_id;sensor_type;location;lat;lon;timestamp;P1;durP1;ratioP1;P2;durP2;ratioP2
70010;SDS011;59543;37.950;-122.338;2023-06-10T00:02:12;1.70;;;0.30;;
70010;SDS011;59543;37.950;-122.338;2023-06-10T00:04:38;0.88;;;0.25;;
70010;SDS011;59543;37.950;-122.338;2023-06-10T00:07:05;0.60;;;0.32;;
70010;SDS011;59543;37.950;-122.338;2023-06-10T00:09:35;0.57;;;0.20;;
70010;SDS011;59543;37.950;-122.338;2023-06-10T00:12:03;0.85;;;0.50;;
70010;SDS011;59543;37.950;-122.338;2023-06-10T00:14:32;0.70;;;0.40;;
70010;SDS011;59543;37.950;-122.338;2023-06-10T00:16:58;1.85;;;0.50;;
70010;SDS011;59543;37.950;-122.338;2023-06-10T00:19:25;1.50;;;0.40;;
70010;SDS011;59543;37.950;-122.338;2023-06-10T00:21:55;1.27;;;0.30;;
70010;SDS011;59543;37.950;-122.338;2023-06-10T00:24:23;2.97;;;0.47;;
70010;SDS011;59543;37.950;-122.338;2023-06-10T00:26:49;2.33;;;0.40;;
70010;SDS011;59543;37.950;-122.338;2023-06-10T00:29:16;3.15;;;0.60;;
70010;SDS011;59543;37.950;-122.338;2023-06-10T00:31:43;0.50;;;0.30;;
70010;SDS011;59543;37.950;-122.338;2023-06-10T00:34:10;1.80;;;0.50;;
70010;SDS011;59543;37.950;-122.338;2023-06-10T00:36:37;0.85;;;0.30;;
70010;SDS011;59543;37.950;-122.338;2023-06-10T00:39:03;1.42;;;0.40;;
70010;SDS011;59543;37.950;-122.338;2023-06-10T00:41:29;0.57;;;0.20;;
70010;SDS011;59543;37.950;-122.338;2023-06-10T00:43:56;1.85;;;0.28;;
70010;SDS011;59543;37.950;-122.338;2023-06-10T00:46:22;3.63;;;0.20;;
70010;SDS011;59543;37.950;-122.338;2023-06-10T00:48:52;1.38;;;0.30;;
70010;SDS011;59543;37.950;-122.338;2023-06-10T00:51:18;2.05;;;0.30;;
70010;SDS011;59543;37.950;-122.338;2023-06-10T00:53:45;0.68;;;0.20;;
70010;SDS011;59543;37.950;-122.338;2023-06-10T00:56:13;0.85;;;0.30;;
70010;SDS011;59543;37.950;-122.338;2023-06-10T00:58:40;1.85;;;0.30;;
70010;SDS011;59543;37.950;-122.338;2023-06-10T01:01:07;1.17;;;0.30;;
70010;SDS011;59543;37.950;-122.338;2023-06-10T01:03:37;0.63;;;0.25;;
70010;SDS011;59543;37.950;-122.338;2023-06-10T01:06:28;3.38;;;0.43;;
70010;SDS011;59543;37.950;-122.338;2023-06-10T01:09:10;1.00;;;0.40;;
70010;SDS011;59543;37.950;-122.338;2023-06-10T01:11:52;6.30;;;0.52;;
70010;SDS011;59543;37.950;-122.338;2023-06-10T01:14:28;5.40;;;0.40;;
70010;SDS011;59543;37.950;-122.338;2023-06-10T01:16:57;4.03;;;0.40;;
70010;SDS011;59543;37.950;-122.338;2023-06-10T01:19:25;3.17;;;0.50;;
70010;SDS011;59543;37.950;-122.338;2023-06-10T01:21:51;2.40;;;0.20;;
70010;SDS011;59543;37.950;-122.338;2023-06-10T01:24:20;3.28;;;0.60;;
70010;SDS011;59543;37.950;-122.338;2023-06-10T01:26:47;3.97;;;0.50;;
70010;SDS011;59543;37.950;-122.338;2023-06-10T01:29:25;0.52;;;0.28;;
70010;SDS011;59543;37.950;-122.338;2023-06-10T01:32:04;2.53;;;0.30;;
70010;SDS011;59543;37.950;-122.338;2023-06-10T01:34:36;0.20;;;0.10;;
70010;SDS011;59543;37.950;-122.338;2023-06-10T01:37:05;2.03;;;0.40;;
70010;SDS011;59543;37.950;-122.338;2023-06-10T01:39:31;3.80;;;0.40;;
70010;SDS011;59543;37.950;-122.338;2023-06-10T01:41:58;1.10;;;0.15;;
70010;SDS011;59543;37.950;-122.338;2023-06-10T01:44:27;1.00;;;0.30;;
70010;SDS011;59543;37.950;-122.338;2023-06-10T01:46:53;1.33;;;0.20;;
70010;SDS011;59543;37.950;-122.338;2023-06-10T01:49:20;1.35;;;0.47;;
70010;SDS011;59543;37.950;-122.338;2023-06-10T01:51:49;0.50;;;0.20;;
70010;SDS011;59543;37.950;-122.338;2023-06-10T01:54:15;0.63;;;0.20;;
70010;SDS011;59543;37.950;-122.338;2023-06-10T01:56:42;0.75;;;0.30;;
70010;SDS011;59543;37.950;-122.338;2023-06-10T01:59:08;1.05;;;0.30;;
70010;SDS011;59543;37.950;-122.338;2023-06-10T02:01:34;0.82;;;0.30;;
70010;SDS011;59543;37.950;-122.338;2023-06-10T02:04:01;0.90;;;0.40;;
70010;SDS011;59543;37.950;-122.338;2023-06-10T02:06:27;2.15;;;0.32;;
70010;SDS011;59543;37.950;-122.338;2023-06-10T02:08:53;2.28;;;0.40;;
70010;SDS011;59543;37.950;-122.338;2023-06-10T02:11:20;0.88;;;0.20;;
70010;SDS011;59543;37.950;-122.338;2023-06-10T02:13:47;1.95;;;0.35;;
70010;SDS011;59543;37.950;-122.338;2023-06-10T02:16:13;1.85;;;0.40;;
70010;SDS011;59543;37.950;-122.338;2023-06-10T02:18:42;1.75;;;0.40;;
70010;SDS011;59543;37.950;-122.338;2023-06-10T02:21:09;3.80;;;0.20;;
70010;SDS011;59543;37.950;-122.338;2023-06-10T02:23:35;1.52;;;0.13;;
70010;SDS011;59543;37.950;-122.338;2023-06-10T02:26:02;2.28;;;0.20;;
70010;SDS011;59543;37.950;-122.338;2023-06-10T02:28:28;0.70;;;0.32;;
70010;SDS011;59543;37.950;-122.338;2023-06-10T02:30:54;1.13;;;0.30;;
70010;SDS011;59543;37.950;-122.338;2023-06-10T02:33:22;1.80;;;0.30;;
70010;SDS011;59543;37.950;-122.338;2023-06-10T02:35:49;0.85;;;0.30;;
70010;SDS011;59543;37.950;-122.338;2023-06-10T02:38:16;1.05;;;0.32;;
70010;SDS011;59543;37.950;-122.338;2023-06-10T02:40:43;0.75;;;0.20;;
70010;SDS011;59543;37.950;-122.338;2023-06-10T02:43:09;4.03;;;0.50;;
70010;SDS011;59543;37.950;-122.338;2023-06-10T02:45:35;3.95;;;0.80;;
70010;SDS011;59543;37.950;-122.338;2023-06-10T02:48:02;6.13;;;0.70;;
70010;SDS011;59543;37.950;-122.338;2023-06-10T02:50:28;6.57;;;0.55;;
70010;SDS011;59543;37.950;-122.338;2023-06-10T02:52:54;1.30;;;0.40;;
70010;SDS011;59543;37.950;-122.338;2023-06-10T02:55:20;2.53;;;0.60;;
70010;SDS011;59543;37.950;-122.338;2023-06-10T02:57:47;2.70;;;0.50;;
70010;SDS011;59543;37.950;-122.338;2023-06-10T03:00:13;1.75;;;0.52;;
70010;SDS011;59543;37.950;-122.338;2023-06-10T03:02:40;5.80;;;0.50;;
70010;SDS011;59543;37.950;-122.338;2023-06-10T03:05:06;2.35;;;0.45;;
70010;SDS011;59543;37.950;-122.338;2023-06-10T03:07:36;3.22;;;0.43;;
70010;SDS011;59543;37.950;-122.338;2023-06-10T03:10:03;0.93;;;0.40;;
70010;SDS011;59543;37.950;-122.338;2023-06-10T03:12:29;2.00;;;0.50;;
70010;SDS011;59543;37.950;-122.338;2023-06-10T03:14:55;2.50;;;0.50;;
70010;SDS011;59543;37.950;-122.338;2023-06-10T03:17:22;5.50;;;0.85;;
70010;SDS011;59543;37.950;-122.338;2023-06-10T03:19:48;5.35;;;1.88;;
70010;SDS011;59543;37.950;-122.338;2023-06-10T03:22:15;4.93;;;1.60;;
70010;SDS011;59543;37.950;-122.338;2023-06-10T03:24:42;2.22;;;1.10;;
70010;SDS011;59543;37.950;-122.338;2023-06-10T03:27:09;2.60;;;0.85;;
70010;SDS011;59543;37.950;-122.338;2023-06-10T03:29:40;5.90;;;1.85;;
70010;SDS011;59543;37.950;-122.338;2023-06-10T03:32:06;3.95;;;0.88;;
70010;SDS011;59543;37.950;-122.338;2023-06-10T03:34:33;5.57;;;1.70;;
70010;SDS011;59543;37.950;-122.338;2023-06-10T03:36:59;4.20;;;1.55;;
70010;SDS011;59543;37.950;-122.338;2023-06-10T03:39:25;3.50;;;0.52;;
70010;SDS011;59543;37.950;-122.338;2023-06-10T03:41:54;5.55;;;0.50;;
70010;SDS011;59543;37.950;-122.338;2023-06-10T03:44:22;2.65;;;0.55;;
70010;SDS011;59543;37.950;-122.338;2023-06-10T03:46:49;2.90;;;0.60;;
70010;SDS011;59543;37.950;-122.338;2023-06-10T03:49:16;3.97;;;1.85;;
70010;SDS011;59543;37.950;-122.338;2023-06-10T03:51:42;2.58;;;0.85;;
70010;SDS011;59543;37.950;-122.338;2023-06-10T03:54:09;4.32;;;0.80;;
70010;SDS011;59543;37.950;-122.338;2023-06-10T03:56:35;0.77;;;0.35;;
70010;SDS011;59543;37.950;-122.338;2023-06-10T03:59:01;1.38;;;0.65;;
70010;SDS011;59543;37.950;-122.338;2023-06-10T04:01:27;1.02;;;0.43;;
70010;SDS011;59543;37.950;-122.338;2023-06-10T04:03:54;1.92;;;0.50;;
70010;SDS011;59543;37.950;-122.338;2023-06-10T04:06:20;1.23;;;0.35;;
70010;SDS011;59543;37.950;-122.338;2023-06-10T04:08:48;1.25;;;0.52;;
70010;SDS011;59543;37.950;-122.338;2023-06-10T04:11:14;2.10;;;0.70;;
70010;SDS011;59543;37.950;-122.338;2023-06-10T04:13:40;3.20;;;0.70;;
70010;SDS011;59543;37.950;-122.338;2023-06-10T04:16:06;6.03;;;0.80;;
70010;SDS011;59543;37.950;-122.338;2023-06-10T04:18:32;2.92;;;0.63;;
70010;SDS011;59543;37.950;-122.338;2023-06-10T04:20:59;3.72;;;0.70;;
70010;SDS011;59543;37.950;-122.338;2023-06-10T04:23:25;4.15;;;0.70;;
70010;SDS011;59543;37.950;-122.338;2023-06-10T04:25:51;1.77;;;0.60;;
70010;SDS011;59543;37.950;-122.338;2023-06-10T04:28:17;4.05;;;0.65;;
70010;SDS011;59543;37.950;-122.338;2023-06-10T04:30:44;2.53;;;0.55;;
70010;SDS011;59543;37.950;-122.338;2023-06-10T04:33:13;1.30;;;0.50;;
70010;SDS011;59543;37.950;-122.338;2023-06-10T04:35:39;1.50;;;0.60;;
70010;SDS011;59543;37.950;-122.338;2023-06-10T04:38:05;5.57;;;0.68;;
70010;SDS011;59543;37.950;-122.338;2023-06-10T04:40:31;1.65;;;0.57;;
70010;SDS011;59543;37.950;-122.338;2023-06-10T04:43:00;0.80;;;0.57;;
70010;SDS011;59543;37.950;-122.338;2023-06-10T04:45:26;1.52;;;0.60;;
70010;SDS011;59543;37.950;-122.338;2023-06-10T04:47:54;2.25;;;0.63;;
70010;SDS011;59543;37.950;-122.338;2023-06-10T04:50:21;3.28;;;0.52;;
70010;SDS011;59543;37.950;-122.338;2023-06-10T04:52:47;1.25;;;0.40;;
70010;SDS011;59543;37.950;-122.338;2023-06-10T04:55:13;2.63;;;0.70;;
70010;SDS011;59543;37.950;-122.338;2023-06-10T04:57:40;2.45;;;0.50;;
70010;SDS011;59543;37.950;-122.338;2023-06-10T05:00:06;2.05;;;0.52;;
70010;SDS011;59543;37.950;-122.338;2023-06-10T05:02:33;3.65;;;0.90;;
70010;SDS011;59543;37.950;-122.338;2023-06-10T05:05:00;2.40;;;0.63;;
70010;SDS011;59543;37.950;-122.338;2023-06-10T05:07:26;1.48;;;0.52;;
70010;SDS011;59543;37.950;-122.338;2023-06-10T05:09:52;1.75;;;0.70;;
70010;SDS011;59543;37.950;-122.338;2023-06-10T05:12:18;3.15;;;1.00;;
70010;SDS011;59543;37.950;-122.338;2023-06-10T05:14:44;2.75;;;0.60;;
70010;SDS011;59543;37.950;-122.338;2023-06-10T05:17:11;3.65;;;0.57;;
70010;SDS011;59543;37.950;-122.338;2023-06-10T05:19:38;1.70;;;0.57;;
70010;SDS011;59543;37.950;-122.338;2023-06-10T05:22:04;3.25;;;0.70;;
70010;SDS011;59543;37.950;-122.338;2023-06-10T05:24:30;2.92;;;0.70;;
70010;SDS011;59543;37.950;-122.338;2023-06-10T05:26:57;1.70;;;0.70;;
70010;SDS011;59543;37.950;-122.338;2023-06-10T05:29:23;1.63;;;0.68;;
70010;SDS011;59543;37.950;-122.338;2023-06-10T05:31:49;5.13;;;0.73;;
70010;SDS011;59543;37.950;-122.338;2023-06-10T05:34:15;4.03;;;0.50;;
70010;SDS011;59543;37.950;-122.338;2023-06-10T05:36:42;1.40;;;0.60;;
70010;SDS011;59543;37.950;-122.338;2023-06-10T05:39:09;1.27;;;0.60;;
70010;SDS011;59543;37.950;-122.338;2023-06-10T05:41:35;1.23;;;0.50;;
70010;SDS011;59543;37.950;-122.338;2023-06-10T05:44:02;6.85;;;2.20;;
70010;SDS011;59543;37.950;-122.338;2023-06-10T05:46:28;1.48;;;0.50;;
70010;SDS011;59543;37.950;-122.338;2023-06-10T05:48:54;1.50;;;0.50;;
70010;SDS011;59543;37.950;-122.338;2023-06-10T05:51:21;1.00;;;0.40;;
70010;SDS011;59543;37.950;-122.338;2023-06-10T05:53:47;0.80;;;0.45;;
70010;SDS011;59543;37.950;-122.338;2023-06-10T05:56:14;5.63;;;0.70;;
70010;SDS011;59543;37.950;-122.338;2023-06-10T05:58:40;1.42;;;0.50;;
70010;SDS011;59543;37.950;-122.338;2023-06-10T06:01:06;1.42;;;0.52;;
70010;SDS011;59543;37.950;-122.338;2023-06-10T06:03:32;2.08;;;0.50;;
70010;SDS011;59543;37.950;-122.338;2023-06-10T06:05:58;5.90;;;0.85;;
70010;SDS011;59543;37.950;-122.338;2023-06-10T06:08:25;1.45;;;0.38;;
70010;SDS011;59543;37.950;-122.338;2023-06-10T06:10:51;2.30;;;0.70;;
70010;SDS011;59543;37.950;-122.338;2023-06-10T06:13:17;0.63;;;0.30;;
70010;SDS011;59543;37.950;-122.338;2023-06-10T06:15:43;2.75;;;0.50;;
70010;SDS011;59543;37.950;-122.338;2023-06-10T06:18:09;4.57;;;0.90;;
70010;SDS011;59543;37.950;-122.338;2023-06-10T06:20:36;1.85;;;0.73;;
70010;SDS011;59543;37.950;-122.338;2023-06-10T06:23:02;4.35;;;0.70;;
70010;SDS011;59543;37.950;-122.338;2023-06-10T06:25:28;1.98;;;0.65;;
70010;SDS011;59543;37.950;-122.338;2023-06-10T06:27:54;1.55;;;0.55;;
70010;SDS011;59543;37.950;-122.338;2023-06-10T06:30:21;4.30;;;0.50;;
70010;SDS011;59543;37.950;-122.338;2023-06-10T06:32:47;1.77;;;0.65;;
70010;SDS011;59543;37.950;-122.338;2023-06-10T06:35:13;2.53;;;0.50;;
70010;SDS011;59543;37.950;-122.338;2023-06-10T06:37:39;1.27;;;0.60;;
70010;SDS011;59543;37.950;-122.338;2023-06-10T06:40:06;1.48;;;0.85;;
70010;SDS011;59543;37.950;-122.338;2023-06-10T06:42:33;1.70;;;0.50;;
70010;SDS011;59543;37.950;-122.338;2023-06-10T06:44:59;3.28;;;0.70;;
70010;SDS011;59543;37.950;-122.338;2023-06-10T06:47:25;1.08;;;0.40;;
70010;SDS011;59543;37.950;-122.338;2023-06-10T06:49:51;2.97;;;0.73;;
70010;SDS011;59543;37.950;-122.338;2023-06-10T06:52:18;1.73;;;0.70;;
70010;SDS011;59543;37.950;-122.338;2023-06-10T06:54:44;2.30;;;0.75;;
70010;SDS011;59543;37.950;-122.338;2023-06-10T06:57:11;2.13;;;0.70;;
70010;SDS011;59543;37.950;-122.338;2023-06-10T06:59:37;2.58;;;0.70;;
70010;SDS011;59543;37.950;-122.338;2023-06-10T07:02:03;2.05;;;0.70;;
70010;SDS011;59543;37.950;-122.338;2023-06-10T07:04:29;2.33;;;0.63;;
70010;SDS011;59543;37.950;-122.338;2023-06-10T07:06:56;3.28;;;0.93;;
70010;SDS011;59543;37.950;-122.338;2023-06-10T07:09:22;1.90;;;0.68;;
70010;SDS011;59543;37.950;-122.338;2023-06-10T07:11:48;1.52;;;0.70;;
70010;SDS011;59543;37.950;-122.338;2023-06-10T07:14:14;3.38;;;0.65;;
70010;SDS011;59543;37.950;-122.338;2023-06-10T07:16:41;3.25;;;0.60;;
70010;SDS011;59543;37.950;-122.338;2023-06-10T07:19:07;4.85;;;1.00;;
70010;SDS011;59543;37.950;-122.338;2023-06-10T07:21:33;1.85;;;0.70;;
70010;SDS011;59543;37.950;-122.338;2023-06-10T07:23:59;1.90;;;0.70;;
70010;SDS011;59543;37.950;-122.338;2023-06-10T07:26:26;3.70;;;0.80;;
70010;SDS011;59543;37.950;-122.338;2023-06-10T07:28:52;3.45;;;0.68;;
70010;SDS011;59543;37.950;-122.338;2023-06-10T07:31:18;2.85;;;0.80;;
70010;SDS011;59543;37.950;-122.338;2023-06-10T07:33:44;2.10;;;0.68;;
70010;SDS011;59543;37.950;-122.338;2023-06-10T07:36:11;1.25;;;0.52;;
70010;SDS011;59543;37.950;-122.338;2023-06-10T07:38:38;4.38;;;0.80;;
70010;SDS011;59543;37.950;-122.338;2023-06-10T07:41:04;5.70;;;0.85;;
70010;SDS011;59543;37.950;-122.338;2023-06-10T07:43:30;2.80;;;0.90;;
70010;SDS011;59543;37.950;-122.338;2023-06-10T07:45:56;2.25;;;0.70;;
70010;SDS011;59543;37.950;-122.338;2023-06-10T07:48:23;3.58;;;0.88;;
70010;SDS011;59543;37.950;-122.338;2023-06-10T07:50:49;3.03;;;0.90;;
70010;SDS011;59543;37.950;-122.338;2023-06-10T07:53:15;6.15;;;0.88;;
70010;SDS011;59543;37.950;-122.338;2023-06-10T07:55:41;1.95;;;0.90;;
70010;SDS011;59543;37.950;-122.338;2023-06-10T07:58:08;2.28;;;0.90;;
70010;SDS011;59543;37.950;-122.338;2023-06-10T08:00:34;1.73;;;0.80;;
70010;SDS011;59543;37.950;-122.338;2023-06-10T08:03:00;4.20;;;0.88;;
70010;SDS011;59543;37.950;-122.338;2023-06-10T08:05:26;1.95;;;0.70;;
70010;SDS011;59543;37.950;-122.338;2023-06-10T08:07:53;1.88;;;0.60;;
70010;SDS011;59543;37.950;-122.338;2023-06-10T08:10:20;5.35;;;0.88;;
70010;SDS011;59543;37.950;-122.338;2023-06-10T08:12:46;2.33;;;0.70;;
70010;SDS011;59543;37.950;-122.338;2023-06-10T08:15:12;2.08;;;0.63;;
70010;SDS011;59543;37.950;-122.338;2023-06-10T08:17:39;2.08;;;0.68;;
70010;SDS011;59543;37.950;-122.338;2023-06-10T08:20:06;1.35;;;0.57;;
70010;SDS011;59543;37.950;-122.338;2023-06-10T08:22:32;1.70;;;0.60;;
70010;SDS011;59543;37.950;-122.338;2023-06-10T08:24:59;1.33;;;0.75;;
70010;SDS011;59543;37.950;-122.338;2023-06-10T08:27:25;2.92;;;0.80;;
70010;SDS011;59543;37.950;-122.338;2023-06-10T08:29:51;1.55;;;0.57;;
70010;SDS011;59543;37.950;-122.338;2023-06-10T08:32:17;3.22;;;0.52;;
70010;SDS011;59543;37.950;-122.338;2023-06-10T08:34:44;3.65;;;0.70;;
70010;SDS011;59543;37.950;-122.338;2023-06-10T08:37:10;3.63;;;0.63;;
70010;SDS011;59543;37.950;-122.338;2023-06-10T08:39:36;3.00;;;0.95;;
70010;SDS011;59543;37.950;-122.338;2023-06-10T08:42:10;5.05;;;0.93;;
70010;SDS011;59543;37.950;-122.338;2023-06-10T08:44:37;3.90;;;0.82;;
70010;SDS011;59543;37.950;-122.338;2023-06-10T08:47:14;3.97;;;1.08;;
70010;SDS011;59543;37.950;-122.338;2023-06-10T08:49:45;5.32;;;1.10;;
70010;SDS011;59543;37.950;-122.338;2023-06-10T08:52:15;5.18;;;1.23;;
70010;SDS011;59543;37.950;-122.338;2023-06-10T08:54:46;10.73;;;1.55;;
70010;SDS011;59543;37.950;-122.338;2023-06-10T08:57:18;3.33;;;1.23;;
70010;SDS011;59543;37.950;-122.338;2023-06-10T08:59:48;6.20;;;1.25;;
70010;SDS011;59543;37.950;-122.338;2023-06-10T09:02:15;3.28;;;1.00;;
70010;SDS011;59543;37.950;-122.338;2023-06-10T09:04:44;4.28;;;1.20;;
70010;SDS011;59543;37.950;-122.338;2023-06-10T09:07:13;6.05;;;1.73;;
70010;SDS011;59543;37.950;-122.338;2023-06-10T09:09:44;6.55;;;1.30;;
70010;SDS011;59543;37.950;-122.338;2023-06-10T09:12:12;4.50;;;1.27;;
70010;SDS011;59543;37.950;-122.338;2023-06-10T09:14:40;6.63;;;1.70;;
70010;SDS011;59543;37.950;-122.338;2023-06-10T09:17:07;8.10;;;1.60;;
70010;SDS011;59543;37.950;-122.338;2023-06-10T09:19:34;6.78;;;1.27;;
70010;SDS011;59543;37.950;-122.338;2023-06-10T09:22:02;7.07;;;1.25;;
70010;SDS011;59543;37.950;-122.338;2023-06-10T09:24:28;5.07;;;1.30;;
70010;SDS011;59543;37.950;-122.338;2023-06-10T09:27:08;4.88;;;1.23;;
70010;SDS011;59543;37.950;-122.338;2023-06-10T09:32:17;6.80;;;1.35;;
70010;SDS011;59543;37.950;-122.338;2023-06-10T09:34:44;4.35;;;1.05;;
70010;SDS011;59543;37.950;-122.338;2023-06-10T09:37:11;4.28;;;1.20;;
70010;SDS011;59543;37.950;-122.338;2023-06-10T09:39:39;3.72;;;1.00;;
70010;SDS011;59543;37.950;-122.338;2023-06-10T09:42:15;5.15;;;1.40;;
70010;SDS011;59543;37.950;-122.338;2023-06-10T09:44:48;7.28;;;1.42;;
70010;SDS011;59543;37.950;-122.338;2023-06-10T09:47:21;3.85;;;1.15;;
70010;SDS011;59543;37.950;-122.338;2023-06-10T09:49:50;3.15;;;0.90;;
70010;SDS011;59543;37.950;-122.338;2023-06-10T09:52:26;3.20;;;1.13;;
70010;SDS011;59543;37.950;-122.338;2023-06-10T09:54:59;3.58;;;1.13;;
70010;SDS011;59543;37.950;-122.338;2023-06-10T09:57:26;2.58;;;1.08;;
70010;SDS011;59543;37.950;-122.338;2023-06-10T10:00:11;3.58;;;1.20;;
70010;SDS011;59543;37.950;-122.338;2023-06-10T10:02:48;4.82;;;1.00;;
70010;SDS011;59543;37.950;-122.338;2023-06-10T10:05:15;4.63;;;1.25;;
70010;SDS011;59543;37.950;-122.338;2023-06-10T10:07:44;3.50;;;1.20;;
70010;SDS011;59543;37.950;-122.338;2023-06-10T10:10:11;4.93;;;1.33;;
70010;SDS011;59543;37.950;-122.338;2023-06-10T10:12:39;5.20;;;1.33;;
70010;SDS011;59543;37.950;-122.338;2023-06-10T10:15:06;3.42;;;1.30;;
70010;SDS011;59543;37.950;-122.338;2023-06-10T10:17:34;3.70;;;1.10;;
70010;SDS011;59543;37.950;-122.338;2023-06-10T10:20:06;3.38;;;1.10;;
70010;SDS011;59543;37.950;-122.338;2023-06-10T10:22:40;4.30;;;1.30;;
70010;SDS011;59543;37.950;-122.338;2023-06-10T10:25:13;5.55;;;1.35;;
70010;SDS011;59543;37.950;-122.338;2023-06-10T10:27:55;5.30;;;1.45;;
70010;SDS011;59543;37.950;-122.338;2023-06-10T10:30:28;6.05;;;1.60;;
70010;SDS011;59543;37.950;-122.338;2023-06-10T10:35:51;7.50;;;1.30;;
70010;SDS011;59543;37.950;-122.338;2023-06-10T10:38:18;4.82;;;1.23;;
70010;SDS011;59543;37.950;-122.338;2023-06-10T10:40:46;7.05;;;1.65;;
70010;SDS011;59543;37.950;-122.338;2023-06-10T10:43:14;5.57;;;1.67;;
70010;SDS011;59543;37.950;-122.338;2023-06-10T10:45:41;6.30;;;1.20;;
70010;SDS011;59543;37.950;-122.338;2023-06-10T10:48:08;6.72;;;1.10;;
70010;SDS011;59543;37.950;-122.338;2023-06-10T10:50:38;5.25;;;1.58;;
70010;SDS011;59543;37.950;-122.338;2023-06-10T10:53:05;4.85;;;1.25;;
70010;SDS011;59543;37.950;-122.338;2023-06-10T10:55:32;4.40;;;1.10;;
70010;SDS011;59543;37.950;-122.338;2023-06-10T10:57:59;5.28;;;1.38;;
70010;SDS011;59543;37.950;-122.338;2023-06-10T11:00:36;3.15;;;1.05;;
70010;SDS011;59543;37.950;-122.338;2023-06-10T11:03:04;7.47;;;1.48;;
70010;SDS011;59543;37.950;-122.338;2023-06-10T11:05:41;5.63;;;1.50;;
70010;SDS011;59543;37.950;-122.338;2023-06-10T11:08:13;3.47;;;1.13;;
70010;SDS011;59543;37.950;-122.338;2023-06-10T11:10:41;5.00;;;1.30;;
70010;SDS011;59543;37.950;-122.338;2023-06-10T11:13:21;6.68;;;1.52;;
70010;SDS011;59543;37.950;-122.338;2023-06-10T11:15:48;3.67;;;1.30;;
70010;SDS011;59543;37.950;-122.338;2023-06-10T11:21:00;3.90;;;1.40;;
70010;SDS011;59543;37.950;-122.338;2023-06-10T11:31:40;5.97;;;1.60;;
70010;SDS011;59543;37.950;-122.338;2023-06-10T11:34:08;7.93;;;1.80;;
70010;SDS011;59543;37.950;-122.338;2023-06-10T11:36:39;4.57;;;1.60;;
70010;SDS011;59543;37.950;-122.338;2023-06-10T11:39:08;3.88;;;1.40;;
70010;SDS011;59543;37.950;-122.338;2023-06-10T11:41:35;8.27;;;1.60;;
70010;SDS011;59543;37.950;-122.338;2023-06-10T11:44:04;6.05;;;2.10;;
70010;SDS011;59543;37.950;-122.338;2023-06-10T11:46:38;3.97;;;1.52;;
70010;SDS011;59543;37.950;-122.338;2023-06-10T11:49:05;7.80;;;1.85;;
70010;SDS011;59543;37.950;-122.338;2023-06-10T11:51:36;6.95;;;1.85;;
70010;SDS011;59543;37.950;-122.338;2023-06-10T11:54:05;7.28;;;1.70;;
70010;SDS011;59543;37.950;-122.338;2023-06-10T11:56:32;5.47;;;1.90;;
70010;SDS011;59543;37.950;-122.338;2023-06-10T11:59:01;5.85;;;1.77;;
70010;SDS011;59543;37.950;-122.338;2023-06-10T12:01:36;5.93;;;1.77;;
70010;SDS011;59543;37.950;-122.338;2023-06-10T12:06:50;11.70;;;2.67;;
70010;SDS011;59543;37.950;-122.338;2023-06-10T12:11:58;10.27;;;2.60;;
70010;SDS011;59543;37.950;-122.338;2023-06-10T12:17:09;5.50;;;1.77;;
70010;SDS011;59543;37.950;-122.338;2023-06-10T12:19:38;7.85;;;2.15;;
70010;SDS011;59543;37.950;-122.338;2023-06-10T12:22:05;6.13;;;2.17;;
70010;SDS011;59543;37.950;-122.338;2023-06-10T12:24:31;12.70;;;1.92;;
70010;SDS011;59543;37.950;-122.338;2023-06-10T12:26:58;7.53;;;1.95;;
70010;SDS011;59543;37.950;-122.338;2023-06-10T12:29:24;5.53;;;1.80;;
70010;SDS011;59543;37.950;-122.338;2023-06-10T12:31:54;8.27;;;1.90;;
70010;SDS011;59543;37.950;-122.338;2023-06-10T12:36:56;8.82;;;2.00;;
70010;SDS011;59543;37.950;-122.338;2023-06-10T12:39:23;6.70;;;2.05;;
70010;SDS011;59543;37.950;-122.338;2023-06-10T12:41:49;8.50;;;2.58;;
70010;SDS011;59543;37.950;-122.338;2023-06-10T12:44:17;16.88;;;2.20;;
70010;SDS011;59543;37.950;-122.338;2023-06-10T12:46:43;5.68;;;2.20;;
70010;SDS011;59543;37.950;-122.338;2023-06-10T12:49:19;6.63;;;1.80;;
70010;SDS011;59543;37.950;-122.338;2023-06-10T12:51:46;8.57;;;1.95;;
70010;SDS011;59543;37.950;-122.338;2023-06-10T12:54:13;8.52;;;2.60;;
70010;SDS011;59543;37.950;-122.338;2023-06-10T12:56:39;5.13;;;2.10;;
70010;SDS011;59543;37.950;-122.338;2023-06-10T12:59:06;5.50;;;1.80;;
70010;SDS011;59543;37.950;-122.338;2023-06-10T13:01:32;6.40;;;1.98;;
70010;SDS011;59543;37.950;-122.338;2023-06-10T13:03:58;4.57;;;1.80;;
70010;SDS011;59543;37.950;-122.338;2023-06-10T13:06:25;6.70;;;2.28;;
70010;SDS011;59543;37.950;-122.338;2023-06-10T13:08:51;4.30;;;1.58;;
70010;SDS011;59543;37.950;-122.338;2023-06-10T13:11:18;3.72;;;1.35;;
70010;SDS011;59543;37.950;-122.338;2023-06-10T13:13:44;5.88;;;2.10;;
70010;SDS011;59543;37.950;-122.338;2023-06-10T13:16:11;5.60;;;1.50;;
70010;SDS011;59543;37.950;-122.338;2023-06-10T13:18:37;4.65;;;1.10;;
70010;SDS011;59543;37.950;-122.338;2023-06-10T13:21:04;4.00;;;1.45;;
70010;SDS011;59543;37.950;-122.338;2023-06-10T13:23:30;3.58;;;1.60;;
70010;SDS011;59543;37.950;-122.338;2023-06-10T13:25:57;9.15;;;1.73;;
70010;SDS011;59543;37.950;-122.338;2023-06-10T13:28:23;6.47;;;1.95;;
70010;SDS011;59543;37.950;-122.338;2023-06-10T13:30:49;6.70;;;1.50;;
70010;SDS011;59543;37.950;-122.338;2023-06-10T13:33:16;6.10;;;1.35;;
70010;SDS011;59543;37.950;-122.338;2023-06-10T13:35:42;3.42;;;1.20;;
70010;SDS011;59543;37.950;-122.338;2023-06-10T13:38:08;29.48;;;2.65;;
70010;SDS011;59543;37.950;-122.338;2023-06-10T13:40:34;3.35;;;1.25;;
70010;SDS011;59543;37.950;-122.338;2023-06-10T13:43:01;121.13;;;6.95;;
70010;SDS011;59543;37.950;-122.338;2023-06-10T13:45:27;4.75;;;1.55;;
70010;SDS011;59543;37.950;-122.338;2023-06-10T13:47:54;8.15;;;1.73;;
70010;SDS011;59543;37.950;-122.338;2023-06-10T13:50:20;3.63;;;1.20;;
70010;SDS011;59543;37.950;-122.338;2023-06-10T13:52:46;5.38;;;1.88;;
70010;SDS011;59543;37.950;-122.338;2023-06-10T13:55:12;4.28;;;1.58;;
70010;SDS011;59543;37.950;-122.338;2023-06-10T13:57:39;6.00;;;1.65;;
70010;SDS011;59543;37.950;-122.338;2023-06-10T14:00:05;6.07;;;1.45;;
70010;SDS011;59543;37.950;-122.338;2023-06-10T14:02:32;3.88;;;1.20;;
70010;SDS011;59543;37.950;-122.338;2023-06-10T14:04:58;3.90;;;1.40;;
70010;SDS011;59543;37.950;-122.338;2023-06-10T14:07:24;3.70;;;1.40;;
70010;SDS011;59543;37.950;-122.338;2023-06-10T14:09:51;4.85;;;1.20;;
70010;SDS011;59543;37.950;-122.338;2023-06-10T14:12:17;3.25;;;1.02;;
70010;SDS011;59543;37.950;-122.338;2023-06-10T14:14:43;3.47;;;1.20;;
70010;SDS011;59543;37.950;-122.338;2023-06-10T14:17:10;3.63;;;1.15;;
70010;SDS011;59543;37.950;-122.338;2023-06-10T14:19:36;3.90;;;1.60;;
70010;SDS011;59543;37.950;-122.338;2023-06-10T14:22:02;3.45;;;1.50;;
70010;SDS011;59543;37.950;-122.338;2023-06-10T14:24:29;3.30;;;1.25;;
70010;SDS011;59543;37.950;-122.338;2023-06-10T14:26:55;4.45;;;1.73;;
70010;SDS011;59543;37.950;-122.338;2023-06-10T14:29:23;6.18;;;1.75;;
70010;SDS011;59543;37.950;-122.338;2023-06-10T14:31:52;3.25;;;1.70;;
70010;SDS011;59543;37.950;-122.338;2023-06-10T14:34:18;3.17;;;1.45;;
70010;SDS011;59543;37.950;-122.338;2023-06-10T14:36:45;4.03;;;1.60;;
70010;SDS011;59543;37.950;-122.338;2023-06-10T14:39:11;3.55;;;1.52;;